sensor_id;sensor_type;location;lat;lon;timestamp;P1;durP1;ratioP1;P2;durP2;ratioP2
18228;SDS011;9239;50.932;3.142;2023-04-30T00:00:58;18.73;;;16.77;;
18228;SDS011;9239;50.932;3.142;2023-04-30T00:03:26;17.40;;;15.57;;
18228;SDS011;9239;50.932;3.142;2023-04-30T00:05:54;19.13;;;17.13;;
18228;SDS011;9239;50.932;3.142;2023-04-30T00:08:21;18.40;;;16.43;;
18228;SDS011;9239;50.932;3.142;2023-04-30T00:10:48;20.10;;;17.53;;
18228;SDS011;9239;50.932;3.142;2023-04-30T00:13:15;19.97;;;17.43;;
18228;SDS011;9239;50.932;3.142;2023-04-30T00:15:43;24.03;;;17.63;;
18228;SDS011;9239;50.932;3.142;2023-04-30T00:18:10;18.43;;;16.40;;
18228;SDS011;9239;50.932;3.142;2023-04-30T00:20:37;17.10;;;15.27;;
18228;SDS011;9239;50.932;3.142;2023-04-30T00:23:05;20.03;;;16.20;;
18228;SDS011;9239;50.932;3.142;2023-04-30T00:25:32;22.37;;;16.80;;
18228;SDS011;9239;50.932;3.142;2023-04-30T00:27:59;21.43;;;17.00;;
18228;SDS011;9239;50.932;3.142;2023-04-30T00:30:26;18.37;;;16.33;;
18228;SDS011;9239;50.932;3.142;2023-04-30T00:32:53;18.87;;;16.87;;
18228;SDS011;9239;50.932;3.142;2023-04-30T00:35:20;18.73;;;16.47;;
18228;SDS011;9239;50.932;3.142;2023-04-30T00:37:47;22.33;;;17.53;;
18228;SDS011;9239;50.932;3.142;2023-04-30T00:40:15;21.07;;;18.00;;
18228;SDS011;9239;50.932;3.142;2023-04-30T00:42:43;23.03;;;18.57;;
18228;SDS011;9239;50.932;3.142;2023-04-30T00:45:10;20.17;;;17.00;;
18228;SDS011;9239;50.932;3.142;2023-04-30T00:47:37;20.40;;;16.93;;
18228;SDS011;9239;50.932;3.142;2023-04-30T00:50:04;19.03;;;16.57;;
18228;SDS011;9239;50.932;3.142;2023-04-30T00:52:32;17.80;;;15.90;;
18228;SDS011;9239;50.932;3.142;2023-04-30T00:54:59;20.43;;;17.50;;
18228;SDS011;9239;50.932;3.142;2023-04-30T00:57:27;18.27;;;16.23;;
18228;SDS011;9239;50.932;3.142;2023-04-30T00:59:55;19.60;;;17.07;;
18228;SDS011;9239;50.932;3.142;2023-04-30T01:02:22;17.07;;;15.30;;
18228;SDS011;9239;50.932;3.142;2023-04-30T01:04:49;19.63;;;16.70;;
18228;SDS011;9239;50.932;3.142;2023-04-30T01:07:17;18.33;;;16.57;;
18228;SDS011;9239;50.932;3.142;2023-04-30T01:09:44;20.33;;;17.20;;
18228;SDS011;9239;50.932;3.142;2023-04-30T01:12:12;19.27;;;17.17;;
18228;SDS011;9239;50.932;3.142;2023-04-30T01:14:48;22.73;;;17.73;;
18228;SDS011;9239;50.932;3.142;2023-04-30T01:17:22;20.47;;;17.27;;
18228;SDS011;9239;50.932;3.142;2023-04-30T01:19:57;20.37;;;17.20;;
18228;SDS011;9239;50.932;3.142;2023-04-30T01:22:29;20.23;;;16.93;;
18228;SDS011;9239;50.932;3.142;2023-04-30T01:25:20;19.87;;;17.80;;
18228;SDS011;9239;50.932;3.142;2023-04-30T01:28:02;19.13;;;17.27;;
18228;SDS011;9239;50.932;3.142;2023-04-30T01:30:32;20.10;;;17.77;;
18228;SDS011;9239;50.932;3.142;2023-04-30T01:32:59;19.07;;;16.73;;
18228;SDS011;9239;50.932;3.142;2023-04-30T01:35:32;19.03;;;17.07;;
18228;SDS011;9239;50.932;3.142;2023-04-30T01:38:09;19.10;;;17.10;;
18228;SDS011;9239;50.932;3.142;2023-04-30T01:40:47;20.90;;;18.10;;
18228;SDS011;9239;50.932;3.142;2023-04-30T01:43:22;19.43;;;16.93;;
18228;SDS011;9239;50.932;3.142;2023-04-30T01:46:00;21.50;;;18.30;;
18228;SDS011;9239;50.932;3.142;2023-04-30T01:48:36;21.80;;;18.30;;
18228;SDS011;9239;50.932;3.142;2023-04-30T01:51:12;22.23;;;18.10;;
18228;SDS011;9239;50.932;3.142;2023-04-30T01:53:44;22.80;;;17.87;;
18228;SDS011;9239;50.932;3.142;2023-04-30T01:56:16;20.87;;;17.70;;
18228;SDS011;9239;50.932;3.142;2023-04-30T01:58:48;23.03;;;18.07;;
18228;SDS011;9239;50.932;3.142;2023-04-30T02:01:26;22.40;;;18.13;;
18228;SDS011;9239;50.932;3.142;2023-04-30T02:03:54;25.60;;;20.83;;
18228;SDS011;9239;50.932;3.142;2023-04-30T02:06:21;21.60;;;18.00;;
18228;SDS011;9239;50.932;3.142;2023-04-30T02:08:52;19.30;;;16.87;;
18228;SDS011;9239;50.932;3.142;2023-04-30T02:11:19;21.03;;;18.37;;
18228;SDS011;9239;50.932;3.142;2023-04-30T02:13:49;22.70;;;17.80;;
18228;SDS011;9239;50.932;3.142;2023-04-30T02:16:16;21.07;;;18.10;;
18228;SDS011;9239;50.932;3.142;2023-04-30T02:18:43;21.57;;;17.20;;
18228;SDS011;9239;50.932;3.142;2023-04-30T02:21:11;19.63;;;17.10;;
18228;SDS011;9239;50.932;3.142;2023-04-30T02:23:38;19.13;;;15.77;;
18228;SDS011;9239;50.932;3.142;2023-04-30T02:26:05;19.33;;;17.23;;
18228;SDS011;9239;50.932;3.142;2023-04-30T02:28:32;19.17;;;15.47;;
18228;SDS011;9239;50.932;3.142;2023-04-30T02:31:01;19.30;;;15.40;;
18228;SDS011;9239;50.932;3.142;2023-04-30T02:33:28;18.53;;;14.73;;
18228;SDS011;9239;50.932;3.142;2023-04-30T02:35:55;17.07;;;15.37;;
18228;SDS011;9239;50.932;3.142;2023-04-30T02:38:24;17.93;;;15.17;;
18228;SDS011;9239;50.932;3.142;2023-04-30T02:40:51;18.57;;;15.90;;
18228;SDS011;9239;50.932;3.142;2023-04-30T02:43:18;17.00;;;15.03;;
18228;SDS011;9239;50.932;3.142;2023-04-30T02:45:45;21.90;;;16.47;;
18228;SDS011;9239;50.932;3.142;2023-04-30T02:48:14;18.73;;;14.97;;
18228;SDS011;9239;50.932;3.142;2023-04-30T02:50:41;18.50;;;16.60;;
18228;SDS011;9239;50.932;3.142;2023-04-30T02:53:08;17.67;;;15.83;;
18228;SDS011;9239;50.932;3.142;2023-04-30T02:55:34;20.07;;;15.87;;
18228;SDS011;9239;50.932;3.142;2023-04-30T02:58:01;18.30;;;16.33;;
18228;SDS011;9239;50.932;3.142;2023-04-30T03:00:28;18.47;;;14.53;;
18228;SDS011;9239;50.932;3.142;2023-04-30T03:02:55;20.27;;;15.87;;
18228;SDS011;9239;50.932;3.142;2023-04-30T03:05:24;19.87;;;16.27;;
18228;SDS011;9239;50.932;3.142;2023-04-30T03:07:51;17.40;;;15.30;;
18228;SDS011;9239;50.932;3.142;2023-04-30T03:10:18;18.27;;;16.20;;
18228;SDS011;9239;50.932;3.142;2023-04-30T03:12:45;18.77;;;15.57;;
18228;SDS011;9239;50.932;3.142;2023-04-30T03:15:12;18.80;;;15.87;;
18228;SDS011;9239;50.932;3.142;2023-04-30T03:17:40;21.03;;;15.73;;
18228;SDS011;9239;50.932;3.142;2023-04-30T03:20:07;18.47;;;16.43;;
18228;SDS011;9239;50.932;3.142;2023-04-30T03:22:36;17.63;;;15.57;;
18228;SDS011;9239;50.932;3.142;2023-04-30T03:25:03;17.90;;;14.97;;
18228;SDS011;9239;50.932;3.142;2023-04-30T03:27:31;17.27;;;15.30;;
18228;SDS011;9239;50.932;3.142;2023-04-30T03:29:58;19.43;;;15.97;;
18228;SDS011;9239;50.932;3.142;2023-04-30T03:32:25;20.77;;;17.43;;
18228;SDS011;9239;50.932;3.142;2023-04-30T03:34:51;22.60;;;16.47;;
18228;SDS011;9239;50.932;3.142;2023-04-30T03:37:18;19.63;;;16.97;;
18228;SDS011;9239;50.932;3.142;2023-04-30T03:39:47;19.43;;;17.20;;
18228;SDS011;9239;50.932;3.142;2023-04-30T03:42:14;18.60;;;16.70;;
18228;SDS011;9239;50.932;3.142;2023-04-30T03:44:40;20.37;;;16.10;;
18228;SDS011;9239;50.932;3.142;2023-04-30T03:47:07;19.07;;;16.70;;
18228;SDS011;9239;50.932;3.142;2023-04-30T03:49:34;19.80;;;17.70;;
18228;SDS011;9239;50.932;3.142;2023-04-30T03:52:02;18.63;;;16.63;;
18228;SDS011;9239;50.932;3.142;2023-04-30T03:54:29;17.20;;;15.00;;
18228;SDS011;9239;50.932;3.142;2023-04-30T03:56:59;19.67;;;16.20;;
18228;SDS011;9239;50.932;3.142;2023-04-30T03:59:27;18.20;;;15.50;;
18228;SDS011;9239;50.932;3.142;2023-04-30T04:01:54;18.17;;;16.23;;
18228;SDS011;9239;50.932;3.142;2023-04-30T04:04:21;17.73;;;15.83;;
18228;SDS011;9239;50.932;3.142;2023-04-30T04:06:48;17.30;;;15.33;;
18228;SDS011;9239;50.932;3.142;2023-04-30T04:09:15;19.97;;;16.77;;
18228;SDS011;9239;50.932;3.142;2023-04-30T04:11:42;18.93;;;15.10;;
18228;SDS011;9239;50.932;3.142;2023-04-30T04:14:10;18.23;;;16.23;;
18228;SDS011;9239;50.932;3.142;2023-04-30T04:16:37;17.67;;;15.77;;
18228;SDS011;9239;50.932;3.142;2023-04-30T04:19:04;19.40;;;15.93;;
18228;SDS011;9239;50.932;3.142;2023-04-30T04:21:31;17.43;;;15.53;;
18228;SDS011;9239;50.932;3.142;2023-04-30T04:23:58;19.03;;;15.17;;
18228;SDS011;9239;50.932;3.142;2023-04-30T04:26:29;20.10;;;15.87;;
18228;SDS011;9239;50.932;3.142;2023-04-30T04:28:56;20.17;;;15.60;;
18228;SDS011;9239;50.932;3.142;2023-04-30T04:31:24;17.23;;;15.43;;
18228;SDS011;9239;50.932;3.142;2023-04-30T04:33:52;18.77;;;15.90;;
18228;SDS011;9239;50.932;3.142;2023-04-30T04:36:22;16.73;;;14.47;;
18228;SDS011;9239;50.932;3.142;2023-04-30T04:38:51;17.63;;;15.80;;
18228;SDS011;9239;50.932;3.142;2023-04-30T04:41:18;16.93;;;15.33;;
18228;SDS011;9239;50.932;3.142;2023-04-30T04:43:47;17.23;;;15.33;;
18228;SDS011;9239;50.932;3.142;2023-04-30T04:46:14;18.33;;;14.93;;
18228;SDS011;9239;50.932;3.142;2023-04-30T04:48:42;19.03;;;14.73;;
18228;SDS011;9239;50.932;3.142;2023-04-30T04:51:09;16.07;;;14.13;;
18228;SDS011;9239;50.932;3.142;2023-04-30T04:53:36;17.13;;;15.17;;
18228;SDS011;9239;50.932;3.142;2023-04-30T04:56:04;15.80;;;14.20;;
18228;SDS011;9239;50.932;3.142;2023-04-30T04:58:32;18.90;;;15.43;;
18228;SDS011;9239;50.932;3.142;2023-04-30T05:00:59;19.93;;;16.03;;
18228;SDS011;9239;50.932;3.142;2023-04-30T05:03:27;19.03;;;15.60;;
18228;SDS011;9239;50.932;3.142;2023-04-30T05:05:56;19.00;;;15.50;;
18228;SDS011;9239;50.932;3.142;2023-04-30T05:08:22;18.40;;;15.40;;
18228;SDS011;9239;50.932;3.142;2023-04-30T05:10:49;20.77;;;16.70;;
18228;SDS011;9239;50.932;3.142;2023-04-30T05:13:16;25.00;;;16.67;;
18228;SDS011;9239;50.932;3.142;2023-04-30T05:15:44;16.87;;;15.07;;
18228;SDS011;9239;50.932;3.142;2023-04-30T05:18:10;16.67;;;14.97;;
18228;SDS011;9239;50.932;3.142;2023-04-30T05:20:37;18.83;;;15.50;;
18228;SDS011;9239;50.932;3.142;2023-04-30T05:23:06;16.80;;;14.87;;
18228;SDS011;9239;50.932;3.142;2023-04-30T05:25:34;16.13;;;13.97;;
18228;SDS011;9239;50.932;3.142;2023-04-30T05:28:01;16.20;;;14.50;;
18228;SDS011;9239;50.932;3.142;2023-04-30T05:30:29;15.63;;;14.03;;
18228;SDS011;9239;50.932;3.142;2023-04-30T05:32:56;15.50;;;13.87;;
18228;SDS011;9239;50.932;3.142;2023-04-30T05:35:23;14.00;;;12.40;;
18228;SDS011;9239;50.932;3.142;2023-04-30T05:37:50;16.53;;;12.30;;
18228;SDS011;9239;50.932;3.142;2023-04-30T05:40:19;12.90;;;11.57;;
18228;SDS011;9239;50.932;3.142;2023-04-30T05:42:46;13.13;;;11.83;;
18228;SDS011;9239;50.932;3.142;2023-04-30T05:45:13;14.90;;;12.53;;
18228;SDS011;9239;50.932;3.142;2023-04-30T05:47:41;13.35;;;12.05;;
18228;SDS011;9239;50.932;3.142;2023-04-30T05:50:08;14.48;;;11.73;;
18228;SDS011;9239;50.932;3.142;2023-04-30T05:52:35;12.80;;;11.52;;
18228;SDS011;9239;50.932;3.142;2023-04-30T05:55:02;12.77;;;11.57;;
18228;SDS011;9239;50.932;3.142;2023-04-30T05:57:31;12.25;;;11.05;;
18228;SDS011;9239;50.932;3.142;2023-04-30T05:59:59;14.00;;;11.65;;
18228;SDS011;9239;50.932;3.142;2023-04-30T06:02:26;12.73;;;11.43;;
18228;SDS011;9239;50.932;3.142;2023-04-30T06:04:53;11.90;;;10.68;;
18228;SDS011;9239;50.932;3.142;2023-04-30T06:07:20;12.63;;;11.07;;
18228;SDS011;9239;50.932;3.142;2023-04-30T06:09:47;12.88;;;11.20;;
18228;SDS011;9239;50.932;3.142;2023-04-30T06:12:14;12.82;;;11.38;;
18228;SDS011;9239;50.932;3.142;2023-04-30T06:14:42;12.32;;;11.23;;
18228;SDS011;9239;50.932;3.142;2023-04-30T06:17:10;12.93;;;11.63;;
18228;SDS011;9239;50.932;3.142;2023-04-30T06:19:37;12.10;;;10.85;;
18228;SDS011;9239;50.932;3.142;2023-04-30T06:22:04;13.05;;;11.25;;
18228;SDS011;9239;50.932;3.142;2023-04-30T06:24:30;12.50;;;11.15;;
18228;SDS011;9239;50.932;3.142;2023-04-30T06:26:58;14.88;;;13.25;;
18228;SDS011;9239;50.932;3.142;2023-04-30T06:29:25;13.27;;;11.18;;
18228;SDS011;9239;50.932;3.142;2023-04-30T06:31:53;12.38;;;11.27;;
18228;SDS011;9239;50.932;3.142;2023-04-30T06:34:21;13.20;;;11.93;;
18228;SDS011;9239;50.932;3.142;2023-04-30T06:36:48;13.68;;;12.27;;
18228;SDS011;9239;50.932;3.142;2023-04-30T06:39:15;15.68;;;12.32;;
18228;SDS011;9239;50.932;3.142;2023-04-30T06:41:42;15.05;;;12.50;;
18228;SDS011;9239;50.932;3.142;2023-04-30T06:44:11;13.37;;;11.80;;
18228;SDS011;9239;50.932;3.142;2023-04-30T06:46:39;13.50;;;12.13;;
18228;SDS011;9239;50.932;3.142;2023-04-30T06:49:07;13.27;;;11.98;;
18228;SDS011;9239;50.932;3.142;2023-04-30T06:51:34;12.20;;;10.85;;
18228;SDS011;9239;50.932;3.142;2023-04-30T06:54:01;12.93;;;11.27;;
18228;SDS011;9239;50.932;3.142;2023-04-30T06:56:28;13.50;;;12.10;;
18228;SDS011;9239;50.932;3.142;2023-04-30T06:58:55;13.50;;;12.10;;
18228;SDS011;9239;50.932;3.142;2023-04-30T07:01:22;14.73;;;12.30;;
18228;SDS011;9239;50.932;3.142;2023-04-30T07:03:49;14.90;;;13.27;;
18228;SDS011;9239;50.932;3.142;2023-04-30T07:06:20;13.63;;;12.37;;
18228;SDS011;9239;50.932;3.142;2023-04-30T07:08:47;15.80;;;13.77;;
18228;SDS011;9239;50.932;3.142;2023-04-30T07:11:14;16.40;;;14.70;;
18228;SDS011;9239;50.932;3.142;2023-04-30T07:13:40;14.40;;;12.90;;
18228;SDS011;9239;50.932;3.142;2023-04-30T07:16:07;15.57;;;13.97;;
18228;SDS011;9239;50.932;3.142;2023-04-30T07:18:35;15.07;;;13.03;;
18228;SDS011;9239;50.932;3.142;2023-04-30T07:21:03;14.23;;;12.60;;
18228;SDS011;9239;50.932;3.142;2023-04-30T07:23:32;14.93;;;13.37;;
18228;SDS011;9239;50.932;3.142;2023-04-30T07:25:59;15.07;;;13.57;;
18228;SDS011;9239;50.932;3.142;2023-04-30T07:28:26;14.70;;;12.83;;
18228;SDS011;9239;50.932;3.142;2023-04-30T07:30:53;14.97;;;13.33;;
18228;SDS011;9239;50.932;3.142;2023-04-30T07:33:20;13.87;;;12.57;;
18228;SDS011;9239;50.932;3.142;2023-04-30T07:35:47;15.30;;;13.80;;
18228;SDS011;9239;50.932;3.142;2023-04-30T07:38:15;14.40;;;12.90;;
18228;SDS011;9239;50.932;3.142;2023-04-30T07:40:44;16.13;;;14.37;;
18228;SDS011;9239;50.932;3.142;2023-04-30T07:43:11;16.07;;;14.47;;
18228;SDS011;9239;50.932;3.142;2023-04-30T07:45:38;15.70;;;14.10;;
18228;SDS011;9239;50.932;3.142;2023-04-30T07:48:06;16.13;;;13.97;;
18228;SDS011;9239;50.932;3.142;2023-04-30T07:50:33;15.23;;;13.77;;
18228;SDS011;9239;50.932;3.142;2023-04-30T07:53:01;15.83;;;13.80;;
18228;SDS011;9239;50.932;3.142;2023-04-30T07:55:31;13.93;;;12.53;;
18228;SDS011;9239;50.932;3.142;2023-04-30T07:57:59;16.35;;;14.43;;
18228;SDS011;9239;50.932;3.142;2023-04-30T08:00:28;15.18;;;13.57;;
18228;SDS011;9239;50.932;3.142;2023-04-30T08:02:55;15.93;;;14.23;;
18228;SDS011;9239;50.932;3.142;2023-04-30T08:05:22;15.30;;;13.80;;
18228;SDS011;9239;50.932;3.142;2023-04-30T08:07:49;14.07;;;12.60;;
18228;SDS011;9239;50.932;3.142;2023-04-30T08:10:16;13.73;;;12.30;;
18228;SDS011;9239;50.932;3.142;2023-04-30T08:12:43;16.10;;;13.53;;
18228;SDS011;9239;50.932;3.142;2023-04-30T08:15:12;13.80;;;12.57;;
18228;SDS011;9239;50.932;3.142;2023-04-30T08:17:39;16.00;;;13.53;;
18228;SDS011;9239;50.932;3.142;2023-04-30T08:20:06;14.77;;;13.38;;
18228;SDS011;9239;50.932;3.142;2023-04-30T08:22:34;15.27;;;13.77;;
18228;SDS011;9239;50.932;3.142;2023-04-30T08:25:01;15.32;;;13.75;;
18228;SDS011;9239;50.932;3.142;2023-04-30T08:27:29;14.63;;;13.13;;
18228;SDS011;9239;50.932;3.142;2023-04-30T08:29:57;15.43;;;13.88;;
18228;SDS011;9239;50.932;3.142;2023-04-30T08:32:26;14.45;;;12.98;;
18228;SDS011;9239;50.932;3.142;2023-04-30T08:34:53;15.80;;;14.10;;
18228;SDS011;9239;50.932;3.142;2023-04-30T08:37:20;16.25;;;14.50;;
18228;SDS011;9239;50.932;3.142;2023-04-30T08:39:47;15.02;;;13.52;;
18228;SDS011;9239;50.932;3.142;2023-04-30T08:42:14;15.40;;;13.88;;
18228;SDS011;9239;50.932;3.142;2023-04-30T08:44:44;14.57;;;13.18;;
18228;SDS011;9239;50.932;3.142;2023-04-30T08:47:12;15.85;;;14.18;;
18228;SDS011;9239;50.932;3.142;2023-04-30T08:49:41;17.13;;;15.40;;
18228;SDS011;9239;50.932;3.142;2023-04-30T08:52:09;15.77;;;13.88;;
18228;SDS011;9239;50.932;3.142;2023-04-30T08:54:36;16.05;;;14.38;;
18228;SDS011;9239;50.932;3.142;2023-04-30T08:57:03;15.43;;;14.02;;
18228;SDS011;9239;50.932;3.142;2023-04-30T08:59:31;14.65;;;13.15;;
18228;SDS011;9239;50.932;3.142;2023-04-30T09:01:59;14.73;;;13.32;;
18228;SDS011;9239;50.932;3.142;2023-04-30T09:04:26;16.73;;;15.13;;
18228;SDS011;9239;50.932;3.142;2023-04-30T09:06:55;16.80;;;14.50;;
18228;SDS011;9239;50.932;3.142;2023-04-30T09:09:26;16.65;;;15.00;;
18228;SDS011;9239;50.932;3.142;2023-04-30T09:12:09;15.32;;;13.60;;
18228;SDS011;9239;50.932;3.142;2023-04-30T09:14:38;13.82;;;12.35;;
18228;SDS011;9239;50.932;3.142;2023-04-30T09:17:06;15.20;;;13.70;;
18228;SDS011;9239;50.932;3.142;2023-04-30T09:19:34;15.15;;;13.65;;
18228;SDS011;9239;50.932;3.142;2023-04-30T09:22:21;14.23;;;12.80;;
18228;SDS011;9239;50.932;3.142;2023-04-30T09:24:49;15.75;;;14.15;;
18228;SDS011;9239;50.932;3.142;2023-04-30T09:27:18;15.02;;;13.52;;
18228;SDS011;9239;50.932;3.142;2023-04-30T09:29:46;14.15;;;12.68;;
18228;SDS011;9239;50.932;3.142;2023-04-30T09:32:13;13.40;;;12.05;;
18228;SDS011;9239;50.932;3.142;2023-04-30T09:34:40;12.13;;;10.88;;
18228;SDS011;9239;50.932;3.142;2023-04-30T09:37:07;13.23;;;11.93;;
18228;SDS011;9239;50.932;3.142;2023-04-30T09:39:46;13.07;;;11.68;;
18228;SDS011;9239;50.932;3.142;2023-04-30T09:42:15;12.13;;;11.02;;
18228;SDS011;9239;50.932;3.142;2023-04-30T09:44:42;12.80;;;11.35;;
18228;SDS011;9239;50.932;3.142;2023-04-30T09:47:10;12.60;;;10.95;;
18228;SDS011;9239;50.932;3.142;2023-04-30T09:49:39;12.27;;;11.15;;
18228;SDS011;9239;50.932;3.142;2023-04-30T09:52:08;12.63;;;11.35;;
18228;SDS011;9239;50.932;3.142;2023-04-30T09:54:36;11.93;;;10.77;;
18228;SDS011;9239;50.932;3.142;2023-04-30T09:57:05;11.73;;;10.63;;
18228;SDS011;9239;50.932;3.142;2023-04-30T09:59:36;11.60;;;10.48;;
18228;SDS011;9239;50.932;3.142;2023-04-30T10:02:05;11.75;;;10.55;;
18228;SDS011;9239;50.932;3.142;2023-04-30T10:04:33;9.68;;;8.70;;
18228;SDS011;9239;50.932;3.142;2023-04-30T10:07:03;10.05;;;9.10;;
18228;SDS011;9239;50.932;3.142;2023-04-30T10:09:35;11.02;;;9.25;;
18228;SDS011;9239;50.932;3.142;2023-04-30T10:12:14;9.50;;;8.52;;
18228;SDS011;9239;50.932;3.142;2023-04-30T10:14:47;10.10;;;9.10;;
18228;SDS011;9239;50.932;3.142;2023-04-30T10:17:17;10.27;;;9.27;;
18228;SDS011;9239;50.932;3.142;2023-04-30T10:19:49;10.02;;;9.13;;
18228;SDS011;9239;50.932;3.142;2023-04-30T10:22:20;10.45;;;9.45;;
18228;SDS011;9239;50.932;3.142;2023-04-30T10:24:47;11.15;;;8.98;;
18228;SDS011;9239;50.932;3.142;2023-04-30T10:27:16;8.18;;;7.38;;
18228;SDS011;9239;50.932;3.142;2023-04-30T10:29:44;9.00;;;6.90;;
18228;SDS011;9239;50.932;3.142;2023-04-30T10:32:12;7.57;;;6.47;;
18228;SDS011;9239;50.932;3.142;2023-04-30T10:34:43;8.88;;;7.97;;
18228;SDS011;9239;50.932;3.142;2023-04-30T10:37:17;8.95;;;7.20;;
18228;SDS011;9239;50.932;3.142;2023-04-30T10:39:47;8.52;;;7.82;;
18228;SDS011;9239;50.932;3.142;2023-04-30T10:42:17;8.77;;;7.97;;
18228;SDS011;9239;50.932;3.142;2023-04-30T10:44:44;9.55;;;8.18;;
18228;SDS011;9239;50.932;3.142;2023-04-30T10:47:12;9.18;;;7.80;;
18228;SDS011;9239;50.932;3.142;2023-04-30T10:49:44;9.15;;;7.95;;
18228;SDS011;9239;50.932;3.142;2023-04-30T10:52:12;11.98;;;9.15;;
18228;SDS011;9239;50.932;3.142;2023-04-30T10:54:39;10.90;;;9.80;;
18228;SDS011;9239;50.932;3.142;2023-04-30T10:57:17;9.48;;;8.52;;
18228;SDS011;9239;50.932;3.142;2023-04-30T10:59:50;10.10;;;9.00;;
18228;SDS011;9239;50.932;3.142;2023-04-30T11:02:38;9.60;;;8.55;;
18228;SDS011;9239;50.932;3.142;2023-04-30T11:05:08;9.05;;;8.25;;
18228;SDS011;9239;50.932;3.142;2023-04-30T11:07:36;8.43;;;7.45;;
18228;SDS011;9239;50.932;3.142;2023-04-30T11:10:13;8.70;;;7.75;;
18228;SDS011;9239;50.932;3.142;2023-04-30T11:12:43;8.55;;;7.75;;
18228;SDS011;9239;50.932;3.142;2023-04-30T11:15:14;8.73;;;7.78;;
18228;SDS011;9239;50.932;3.142;2023-04-30T11:17:44;7.63;;;6.95;;
18228;SDS011;9239;50.932;3.142;2023-04-30T11:20:11;7.78;;;6.95;;
18228;SDS011;9239;50.932;3.142;2023-04-30T11:22:39;7.70;;;7.00;;
18228;SDS011;9239;50.932;3.142;2023-04-30T11:25:07;8.65;;;7.85;;
18228;SDS011;9239;50.932;3.142;2023-04-30T11:27:35;8.23;;;7.53;;
18228;SDS011;9239;50.932;3.142;2023-04-30T11:30:10;9.07;;;8.05;;
18228;SDS011;9239;50.932;3.142;2023-04-30T11:32:39;9.77;;;8.77;;
18228;SDS011;9239;50.932;3.142;2023-04-30T11:35:07;8.45;;;7.65;;
18228;SDS011;9239;50.932;3.142;2023-04-30T11:37:35;7.38;;;6.68;;
18228;SDS011;9239;50.932;3.142;2023-04-30T11:40:04;8.27;;;7.50;;
18228;SDS011;9239;50.932;3.142;2023-04-30T11:42:33;9.52;;;7.30;;
18228;SDS011;9239;50.932;3.142;2023-04-30T11:45:03;7.28;;;6.57;;
18228;SDS011;9239;50.932;3.142;2023-04-30T11:47:43;7.03;;;5.60;;
18228;SDS011;9239;50.932;3.142;2023-04-30T11:50:12;6.63;;;5.95;;
18228;SDS011;9239;50.932;3.142;2023-04-30T11:52:40;7.20;;;6.50;;
18228;SDS011;9239;50.932;3.142;2023-04-30T11:55:11;6.78;;;6.13;;
18228;SDS011;9239;50.932;3.142;2023-04-30T11:57:41;6.20;;;5.63;;
18228;SDS011;9239;50.932;3.142;2023-04-30T12:00:11;6.65;;;6.05;;
18228;SDS011;9239;50.932;3.142;2023-04-30T12:02:40;5.85;;;5.35;;
18228;SDS011;9239;50.932;3.142;2023-04-30T12:05:13;5.80;;;5.25;;
18228;SDS011;9239;50.932;3.142;2023-04-30T12:07:45;6.63;;;6.07;;
18228;SDS011;9239;50.932;3.142;2023-04-30T12:10:13;6.20;;;5.70;;
18228;SDS011;9239;50.932;3.142;2023-04-30T12:12:41;6.38;;;5.75;;
18228;SDS011;9239;50.932;3.142;2023-04-30T12:15:10;6.20;;;5.68;;
18228;SDS011;9239;50.932;3.142;2023-04-30T12:17:42;5.90;;;5.40;;
18228;SDS011;9239;50.932;3.142;2023-04-30T12:20:11;7.13;;;6.47;;
18228;SDS011;9239;50.932;3.142;2023-04-30T12:22:40;6.82;;;6.15;;
18228;SDS011;9239;50.932;3.142;2023-04-30T12:25:08;7.55;;;6.47;;
18228;SDS011;9239;50.932;3.142;2023-04-30T12:27:38;5.50;;;5.00;;
18228;SDS011;9239;50.932;3.142;2023-04-30T12:30:07;6.72;;;5.40;;
18228;SDS011;9239;50.932;3.142;2023-04-30T12:32:38;7.97;;;6.10;;
18228;SDS011;9239;50.932;3.142;2023-04-30T12:35:08;6.43;;;5.82;;
18228;SDS011;9239;50.932;3.142;2023-04-30T12:37:40;7.50;;;6.80;;
18228;SDS011;9239;50.932;3.142;2023-04-30T12:40:08;7.97;;;6.53;;
18228;SDS011;9239;50.932;3.142;2023-04-30T12:42:36;5.30;;;4.80;;
18228;SDS011;9239;50.932;3.142;2023-04-30T12:45:03;5.15;;;4.70;;
18228;SDS011;9239;50.932;3.142;2023-04-30T12:47:31;5.68;;;5.18;;
18228;SDS011;9239;50.932;3.142;2023-04-30T12:50:03;6.78;;;5.90;;
18228;SDS011;9239;50.932;3.142;2023-04-30T12:52:34;7.55;;;5.35;;
18228;SDS011;9239;50.932;3.142;2023-04-30T12:55:13;6.57;;;5.90;;
18228;SDS011;9239;50.932;3.142;2023-04-30T12:57:40;6.32;;;5.75;;
18228;SDS011;9239;50.932;3.142;2023-04-30T13:00:08;5.60;;;5.10;;
18228;SDS011;9239;50.932;3.142;2023-04-30T13:02:35;6.38;;;5.72;;
18228;SDS011;9239;50.932;3.142;2023-04-30T13:05:04;6.57;;;5.57;;
18228;SDS011;9239;50.932;3.142;2023-04-30T13:07:36;6.70;;;5.68;;
18228;SDS011;9239;50.932;3.142;2023-04-30T13:10:05;8.27;;;4.97;;
18228;SDS011;9239;50.932;3.142;2023-04-30T13:12:32;5.00;;;4.60;;
18228;SDS011;9239;50.932;3.142;2023-04-30T13:14:59;5.60;;;4.50;;
18228;SDS011;9239;50.932;3.142;2023-04-30T13:17:27;5.03;;;4.55;;
18228;SDS011;9239;50.932;3.142;2023-04-30T13:19:54;5.70;;;5.30;;
18228;SDS011;9239;50.932;3.142;2023-04-30T13:22:21;6.30;;;5.70;;
18228;SDS011;9239;50.932;3.142;2023-04-30T13:24:54;6.63;;;6.03;;
18228;SDS011;9239;50.932;3.142;2023-04-30T13:27:21;7.43;;;6.60;;
18228;SDS011;9239;50.932;3.142;2023-04-30T13:29:48;6.28;;;5.78;;
18228;SDS011;9239;50.932;3.142;2023-04-30T13:32:15;4.57;;;4.18;;
18228;SDS011;9239;50.932;3.142;2023-04-30T13:34:42;5.47;;;4.95;;
18228;SDS011;9239;50.932;3.142;2023-04-30T13:37:09;5.63;;;4.53;;
18228;SDS011;9239;50.932;3.142;2023-04-30T13:39:36;6.07;;;5.47;;
18228;SDS011;9239;50.932;3.142;2023-04-30T13:42:05;5.15;;;4.70;;
18228;SDS011;9239;50.932;3.142;2023-04-30T13:44:32;6.32;;;4.95;;
18228;SDS011;9239;50.932;3.142;2023-04-30T13:47:00;5.55;;;5.00;;
18228;SDS011;9239;50.932;3.142;2023-04-30T13:49:27;5.53;;;5.03;;
18228;SDS011;9239;50.932;3.142;2023-04-30T13:51:54;5.63;;;5.13;;
18228;SDS011;9239;50.932;3.142;2023-04-30T13:54:21;7.00;;;5.30;;
18228;SDS011;9239;50.932;3.142;2023-04-30T13:56:48;5.78;;;5.18;;
18228;SDS011;9239;50.932;3.142;2023-04-30T13:59:17;5.30;;;4.80;;
18228;SDS011;9239;50.932;3.142;2023-04-30T14:01:44;5.57;;;4.97;;
18228;SDS011;9239;50.932;3.142;2023-04-30T14:04:11;5.15;;;4.75;;
18228;SDS011;9239;50.932;3.142;2023-04-30T14:06:39;4.75;;;4.35;;
18228;SDS011;9239;50.932;3.142;2023-04-30T14:09:06;4.72;;;4.38;;
18228;SDS011;9239;50.932;3.142;2023-04-30T14:11:33;4.82;;;4.43;;
18228;SDS011;9239;50.932;3.142;2023-04-30T14:14:00;6.65;;;4.65;;
18228;SDS011;9239;50.932;3.142;2023-04-30T14:16:28;3.80;;;3.33;;
18228;SDS011;9239;50.932;3.142;2023-04-30T14:18:55;4.68;;;4.22;;
18228;SDS011;9239;50.932;3.142;2023-04-30T14:21:22;4.63;;;4.10;;
18228;SDS011;9239;50.932;3.142;2023-04-30T14:23:49;4.50;;;4.20;;
18228;SDS011;9239;50.932;3.142;2023-04-30T14:26:16;4.97;;;4.57;;
18228;SDS011;9239;50.932;3.142;2023-04-30T14:28:43;4.55;;;4.15;;
18228;SDS011;9239;50.932;3.142;2023-04-30T14:31:10;5.32;;;4.88;;
18228;SDS011;9239;50.932;3.142;2023-04-30T14:33:38;4.95;;;4.55;;
18228;SDS011;9239;50.932;3.142;2023-04-30T14:36:06;7.57;;;6.88;;
18228;SDS011;9239;50.932;3.142;2023-04-30T14:38:33;5.82;;;5.32;;
18228;SDS011;9239;50.932;3.142;2023-04-30T14:41:00;6.78;;;5.63;;
18228;SDS011;9239;50.932;3.142;2023-04-30T14:43:27;5.38;;;4.88;;
18228;SDS011;9239;50.932;3.142;2023-04-30T14:45:54;5.68;;;5.18;;
18228;SDS011;9239;50.932;3.142;2023-04-30T14:48:21;6.53;;;5.40;;
18228;SDS011;9239;50.932;3.142;2023-04-30T14:50:50;5.13;;;4.63;;